Latest Weather Observations for Nullarbor

IDS60801

Issued at 9:32 pm CDT Wednesday 4 March 2015 (issued every 30 minutes, with the page automatically refreshed every 10 minutes)

About weather observations | Map of weather stations | Latest weather observations for SA | Other Formats
Station Details ID: 018106 Name: NULLARBOR Lat: -31.45 Lon: 130.90 Height: 64.0 m
Data from the previous 72 hours. | See also: Recent months at Nullarbor
Date/Time
CDT
Temp
°C
App
Temp
°C
Dew
Point
Rel
Hum
%
Delta-T
°C
Wind Press
QNH
hPa
Press
MSL
hPa
Rain
since 9 am
mm
Dir
 
Spd
km/h
Gust
km/h
Spd
kts
Gust
kts
04/09:30pm 17.9 16.6 13.6 76 2.4 S 13 17 7 9 1023.9 1023.7 0.0
04/09:00pm 18.1 16.7 13.4 74 2.7 S 13 17 7 9 1023.6 1023.4 0.0
04/08:30pm 18.4 16.5 13.0 71 3.0 S 15 19 8 10 1023.2 1023.0 0.0
04/08:00pm 18.7 15.9 12.7 68 3.4 SSE 19 24 10 13 1022.9 1022.8 0.0
04/07:30pm 19.0 15.6 12.5 66 3.6 SSE 22 26 12 14 1023.1 1022.9 0.0
04/07:00pm 19.3 15.6 12.6 65 3.8 S 24 30 13 16 1022.9 1022.8 0.0
04/06:30pm 19.4 16.0 12.4 64 3.9 SSE 22 32 12 17 1022.7 1022.6 0.0
04/06:00pm 19.9 16.1 12.4 62 4.2 S 24 32 13 17 1022.7 1022.6 0.0
04/05:30pm 20.3 15.8 12.5 61 4.4 S 28 33 15 18 1022.4 1022.3 0.0
04/05:00pm 20.7 16.7 12.9 61 4.4 S 26 35 14 19 1022.5 1022.4 0.0
04/04:30pm 21.1 16.7 13.0 60 4.6 SSE 28 33 15 18 1022.3 1022.2 0.0
04/04:00pm 21.7 17.6 12.8 57 5.1 S 26 37 14 20 1022.3 1022.2 0.0
04/03:30pm 21.1 17.2 13.3 61 4.5 S 26 35 14 19 1022.7 1022.6 0.0
04/03:00pm 20.8 17.3 13.5 63 4.2 SSE 24 37 13 20 1022.9 1022.8 0.0
04/02:30pm 20.4 16.8 13.1 63 4.1 S 24 32 13 17 1022.6 1022.5 0.0
04/02:00pm 20.3 16.1 13.5 65 3.9 SSE 28 35 15 19 1022.5 1022.4 0.0
04/01:30pm 20.0 16.2 13.7 67 3.6 SSE 26 33 14 18 1022.6 1022.5 0.0
04/01:00pm 20.4 16.8 14.1 67 3.7 SSE 26 35 14 19 1022.7 1022.6 0.0
04/12:30pm 20.2 16.1 13.9 67 3.6 SSE 28 35 15 19 1023.1 1022.9 0.0
04/12:00pm 20.1 16.6 14.5 70 3.3 SSE 26 35 14 19 1023.2 1023.0 0.0
04/11:30am 19.5 15.6 14.5 73 2.9 SSE 28 35 15 19 1022.8 1022.7 0.0
04/11:00am 19.0 15.2 14.7 76 2.5 SSE 28 37 15 20 1022.9 1022.8 0.0
04/10:30am 19.3 16.2 15.6 79 2.2 SSE 26 33 14 18 1022.3 1022.2 0.0
04/10:00am 18.9 15.6 15.0 78 2.3 SSE 26 32 14 17 1022.1 1021.9 0.0
04/09:30am 18.6 15.6 14.7 78 2.3 SSE 24 32 13 17 1021.8 1021.6 0.0
04/09:00am 18.2 15.8 14.5 79 2.1 SSE 20 28 11 15 1021.5 1021.3 1.8
04/08:30am 17.8 15.7 14.7 82 1.8 SSE 19 26 10 14 1021.2 1021.0 1.8
04/08:00am 17.4 15.7 14.7 84 1.6 SSE 17 20 9 11 1020.8 1020.6 1.8
04/07:30am 17.3 15.6 14.6 84 1.6 SSE 17 20 9 11 1020.4 1020.2 1.8
04/07:00am 17.2 15.5 14.7 85 1.4 SSE 17 22 9 12 1020.3 1020.1 1.8
04/06:30am 17.0 15.7 15.7 92 0.8 SE 17 24 9 13 1019.8 1019.6 1.6
04/06:00am 16.9 16.5 16.3 96 0.4 SSE 13 17 7 9 1020.1 1019.9 1.6
04/05:30am 16.8 17.2 16.3 97 0.3 SSE 9 11 5 6 1020.1 1019.9 1.6
04/05:00am 16.6 16.5 16.1 97 0.3 SE 11 13 6 7 1020.0 1019.8 1.6
04/04:30am 16.6 16.9 16.1 97 0.3 SE 9 11 5 6 1020.5 1020.3 1.6
04/04:00am 16.6 16.5 16.1 97 0.3 SE 11 13 6 7 1020.6 1020.4 1.6
04/03:30am 16.5 16.0 16.0 97 0.3 SSE 13 15 7 8 1020.6 1020.4 1.6
04/03:00am 16.4 16.0 16.1 98 0.2 SSE 13 17 7 9 1020.7 1020.5 1.6
04/02:30am 16.3 16.2 16.0 98 0.2 SSE 11 13 6 7 1021.3 1021.1 1.6
04/02:00am 16.4 16.3 16.1 98 0.2 SSE 11 13 6 7 1021.3 1021.1 1.6
04/01:30am 16.7 17.1 16.2 97 0.3 SE 9 13 5 7 1021.8 1021.6 1.6
04/01:00am 16.7 17.3 15.9 95 0.5 SSE 7 9 4 5 1022.1 1021.9 1.6
04/12:30am 16.8 17.0 15.7 93 0.6 SSE 9 11 5 6 1022.1 1021.9 1.2
04/12:00am 16.8 16.6 15.7 93 0.6 SSE 11 15 6 8 1022.0 1021.8 1.0
 
Date/Time
CDT
Temp
°C
App
Temp
°C
Dew
Point
Rel
Hum
%
Delta-T
°C
Wind Press
QNH
hPa
Press
MSL
hPa
Rain
since 9 am
mm
Dir
 
Spd
km/h
Gust
km/h
Spd
kts
Gust
kts
03/11:30pm 16.9 16.3 15.6 92 0.8 SSE 13 15 7 8 1022.0 1021.8 1.0
03/11:00pm 17.0 16.1 15.9 93 0.6 SE 15 19 8 10 1021.8 1021.6 0.8
03/10:30pm 17.0 15.7 15.9 93 0.6 SE 17 22 9 12 1021.3 1021.1 0.8
03/10:00pm 17.1 15.9 16.1 94 0.6 SSE 17 22 9 12 1021.3 1021.1 0.8
03/09:30pm 17.1 17.0 16.1 94 0.6 SE 11 15 6 8 1021.5 1021.3 0.8
03/09:00pm 17.1 16.6 16.0 93 0.6 SSE 13 15 7 8 1021.1 1020.9 0.8
03/08:30pm 17.2 16.7 15.9 92 0.8 SSE 13 17 7 9 1020.8 1020.6 0.8
03/08:00pm 17.3 16.0 15.8 91 0.9 SSE 17 22 9 12 1020.5 1020.3 0.6
03/07:30pm 17.4 15.8 15.9 91 0.9 SSE 19 24 10 13 1020.2 1020.0 0.6
03/07:00pm 17.7 15.4 15.7 88 1.2 SSE 22 30 12 16 1020.1 1019.9 0.4
03/06:30pm 18.3 15.0 15.0 81 1.9 SSE 26 32 14 17 1019.9 1019.7 0.0
03/06:00pm 18.7 15.5 15.2 80 2.1 SE 26 32 14 17 1019.5 1019.3 0.0
03/05:30pm 18.8 15.5 15.1 79 2.2 SE 26 33 14 18 1019.3 1019.1 0.0
03/05:00pm 19.0 14.9 14.9 77 2.4 SE 30 37 16 20 1019.2 1019.0 0.0
03/04:44pm 18.8 15.7 15.5 81 1.9 SE 26 33 14 18 1019.0 1018.8 0.0
03/04:30pm 18.8 15.4 15.9 83 1.7 SE 28 33 15 18 1019.0 1018.8 0.0
03/04:27pm 18.8 15.4 15.9 83 1.7 SE 28 33 15 18 1019.1 1018.9 0.0
03/04:00pm 18.7 15.3 15.8 83 1.7 SE 28 35 15 19 1019.2 1019.0 0.0
03/03:30pm 19.1 15.6 15.4 79 2.2 SE 28 35 15 19 1019.8 1019.6 0.0
03/03:00pm 19.3 15.8 15.6 79 2.2 SE 28 39 15 21 1019.6 1019.4 0.0
03/02:30pm 19.2 16.1 15.7 80 2.1 SE 26 33 14 18 1019.8 1019.6 0.0
03/02:00pm 18.8 15.6 15.3 80 2.1 SE 26 35 14 19 1019.8 1019.6 0.0
03/01:30pm 18.7 15.3 15.9 84 1.7 SE 28 35 15 19 1019.6 1019.4 0.0
03/01:00pm 18.8 14.6 15.7 82 1.8 SE 32 39 17 21 1019.7 1019.5 0.0
03/12:30pm 19.0 14.7 15.3 79 2.2 SE 32 41 17 22 1019.8 1019.6 0.0
03/12:00pm 19.0 15.0 15.1 78 2.3 SE 30 35 16 19 1020.0 1019.8 0.0
03/11:30am 19.0 15.0 15.1 78 2.3 SE 30 39 16 21 1019.8 1019.6 0.0
03/11:00am 19.1 15.4 16.1 83 1.8 SE 30 39 16 21 1019.8 1019.6 0.0
03/10:30am 19.0 15.1 15.5 80 2.1 SE 30 37 16 20 1019.4 1019.2 0.0
03/10:00am 19.1 16.1 15.8 81 2.0 SE 26 33 14 18 1019.4 1019.2 0.0
03/09:30am 18.2 16.4 16.0 87 1.3 SE 20 30 11 16 1019.6 1019.4 0.0
03/09:00am 17.8 17.1 16.3 91 0.9 SE 15 20 8 11 1019.6 1019.4 8.6
03/08:30am 17.5 17.2 16.5 94 0.6 SE 13 17 7 9 1019.3 1019.1 8.6
03/08:00am 17.2 17.0 16.7 97 0.3 SE 13 17 7 9 1018.7 1018.5 8.6
03/07:30am 17.0 16.8 16.7 98 0.2 SE 13 15 7 8 1018.2 1018.0 8.6
03/07:00am 16.9 17.1 16.7 99 0.1 SE 11 15 6 8 1017.9 1017.7 8.6
03/06:30am 17.0 17.6 16.8 99 0.1 SE 9 11 5 6 1017.9 1017.7 8.6
03/06:00am 16.8 17.3 16.6 99 0.1 SE 9 11 5 6 1017.7 1017.5 8.6
03/05:30am 16.6 17.0 16.3 98 0.2 S 9 11 5 6 1017.6 1017.4 8.6
03/05:00am 16.7 17.1 16.2 97 0.3 S 9 9 5 5 1018.0 1017.8 8.6
03/04:30am 16.5 16.6 15.5 94 0.6 ESE 9 9 5 5 1017.5 1017.3 8.4
03/04:00am 16.6 17.3 15.5 93 0.6 ESE 6 7 3 4 1017.6 1017.4 8.4
03/03:30am 16.7 17.1 15.4 92 0.8 E 7 7 4 4 1017.6 1017.4 8.4
03/03:00am 16.9 17.3 15.2 90 1.0 SE 7 7 4 4 1017.8 1017.6 8.4
03/02:30am 17.4 17.8 15.2 87 1.3 NE 7 9 4 5 1018.1 1017.9 8.2
03/02:00am 17.6 16.5 15.2 86 1.4 ESE 15 20 8 11 1017.0 1016.8 8.2
03/01:30am 17.4 16.3 15.4 88 1.2 SE 15 20 8 11 1016.9 1016.7 8.2
03/01:00am 17.2 15.7 15.4 89 1.1 SSE 17 22 9 12 1017.0 1016.8 8.2
03/12:30am 17.2 15.7 15.4 89 1.1 SE 17 20 9 11 1016.9 1016.7 8.2
03/12:00am 17.2 15.3 15.7 91 0.9 SE 20 24 11 13 1016.8 1016.6 8.2
 
Date/Time
CDT
Temp
°C
App
Temp
°C
Dew
Point
Rel
Hum
%
Delta-T
°C
Wind Press
QNH
hPa
Press
MSL
hPa
Rain
since 9 am
mm
Dir
 
Spd
km/h
Gust
km/h
Spd
kts
Gust
kts
02/11:30pm 17.3 14.9 15.3 88 1.2 SE 22 30 12 16 1016.9 1016.7 8.2
02/11:00pm 17.4 14.9 15.2 87 1.3 SE 22 30 12 16 1017.1 1016.9 8.2
02/10:30pm 17.3 14.1 15.3 88 1.2 SE 26 33 14 18 1016.4 1016.2 8.2
02/10:00pm 17.2 14.0 15.2 88 1.2 SE 26 32 14 17 1016.2 1016.0 8.2
02/09:30pm 17.1 13.6 15.4 90 1.0 SE 28 33 15 18 1016.2 1016.0 8.2
02/09:00pm 17.4 14.4 15.9 91 0.9 SE 26 33 14 18 1015.7 1015.5 8.2
02/08:30pm 17.7 15.1 15.9 89 1.1 SSE 24 33 13 18 1015.5 1015.3 8.2
02/08:00pm 17.3 14.9 15.3 88 1.2 SSE 22 30 12 16 1015.4 1015.2 8.2
02/07:30pm 17.3 14.4 16.0 92 0.8 SSE 26 32 14 17 1015.5 1015.3 8.2
02/07:00pm 17.2 14.6 15.9 92 0.8 SSE 24 30 13 16 1015.4 1015.2 8.2
02/06:30pm 17.1 15.3 16.0 93 0.6 SSE 20 28 11 15 1015.5 1015.3 8.2
02/06:00pm 17.2 15.7 16.2 94 0.6 SSE 19 24 10 13 1015.8 1015.6 8.2
02/05:30pm 16.9 15.1 15.6 92 0.8 SSE 19 22 10 12 1015.8 1015.6 8.2
02/05:00pm 16.5 14.7 15.4 93 0.6 S 19 22 10 12 1016.0 1015.8 8.2
02/04:39pm 16.6 14.8 15.6 94 0.6 S 19 22 10 12 1015.6 1015.4 8.2
02/04:30pm 16.4 14.4 15.4 94 0.6 S 20 24 11 13 1015.5 1015.3 8.0
02/04:00pm 16.3 14.8 15.2 93 0.6 S 17 22 9 12 1015.8 1015.6 6.8
02/03:35pm 15.9 12.5 13.6 86 1.3 SSW 24 30 13 16 1015.6 1015.4 5.2
02/03:30pm 15.9 12.9 13.6 86 1.3 SSW 22 30 12 16 1015.7 1015.5 4.8
02/03:00pm 17.2 13.9 15.0 87 1.3 SSW 26 33 14 18 1015.2 1015.0 3.8
02/02:30pm 18.0 15.5 16.2 89 1.1 SSW 24 32 13 17 1015.3 1015.1 3.2
02/02:00pm 18.6 16.6 17.4 93 0.7 S 24 30 13 16 1015.3 1015.1 2.8
02/01:58pm 18.6 16.6 17.4 93 0.7 S 24 30 13 16 1015.2 1015.0 2.8
02/01:30pm 17.8 14.5 16.1 90 1.0 SSW 28 35 15 19 1015.7 1015.5 2.0
02/01:00pm 18.7 16.6 17.2 91 0.9 S 24 28 13 15 1015.4 1015.2 1.8
02/12:40pm 18.2 16.2 17.4 95 0.5 SSW 24 32 13 17 1015.6 1015.4 1.6
02/12:30pm 18.6 17.3 18.1 97 0.3 SSW 22 28 12 15 1015.9 1015.7 1.6
02/12:23pm 18.5 17.5 18.0 97 0.3 SSW 20 28 11 15 1016.3 1016.1 1.6
02/12:18pm 18.5 17.7 18.0 97 0.3 SSW 19 28 10 15 1016.3 1016.1 1.6
02/12:00pm 18.2 17.1 17.4 95 0.5 SW 19 24 10 13 1016.5 1016.3 1.2
02/11:59am 18.1 17.0 17.3 95 0.5 SW 19 24 10 13 1016.5 1016.3 1.2
02/11:30am 18.1 16.4 17.3 95 0.5 SSW 22 30 12 16 1015.9 1015.7 1.0
02/11:00am 18.4 16.3 17.2 93 0.7 SSW 24 32 13 17 1015.4 1015.2 0.6
02/10:30am 18.5 17.2 17.2 92 0.8 SSW 20 26 11 14 1014.9 1014.7 0.6
02/10:00am 18.3 17.9 17.1 93 0.7 SSW 15 19 8 10 1015.4 1015.2 0.4
02/09:35am 18.2 18.5 16.9 92 0.8 SSW 11 13 6 7 1015.3 1015.1 0.2
02/09:30am 18.2 18.8 16.9 92 0.8 SSW 9 13 5 7 1015.2 1015.0 0.2
02/09:21am 18.1 18.6 16.6 91 0.9 SSW 9 11 5 6 1015.3 1015.1 0.0
02/09:00am 18.0 19.0 16.3 90 1.0 SSE 6 9 3 5 1015.0 1014.8 0.0
02/08:30am 17.9 17.2 15.5 86 1.4 S 13 15 7 8 1014.2 1014.0 0.0
02/08:00am 17.8 17.8 15.2 85 1.5 SSE 9 13 5 7 1014.5 1014.3 0.0
02/07:30am 17.7 16.2 15.3 86 1.4 SE 17 22 9 12 1013.2 1013.0 0.0
02/07:00am 17.7 15.6 15.1 85 1.5 ESE 20 28 11 15 1012.8 1012.6 0.0
02/06:30am 17.6 15.7 15.2 86 1.4 SE 19 26 10 14 1012.5 1012.3 0.0
02/06:00am 17.5 15.6 15.1 86 1.4 SE 19 24 10 13 1012.7 1012.5 0.0
02/05:30am 17.4 15.4 14.9 85 1.5 ESE 19 24 10 13 1012.8 1012.6 0.0
02/05:00am 17.4 15.3 14.7 84 1.6 ESE 19 26 10 14 1012.9 1012.7 0.0
02/04:30am 17.5 14.3 14.2 81 1.9 ESE 24 33 13 18 1012.8 1012.6 0.0
02/04:00am 17.4 14.1 13.9 80 2.0 ESE 24 30 13 16 1013.2 1013.0 0.0
02/03:30am 17.4 14.5 13.9 80 2.0 SE 22 32 12 17 1013.8 1013.6 0.0
02/03:00am 17.4 13.7 13.9 80 2.0 ESE 26 33 14 18 1013.7 1013.5 0.0
02/02:30am 17.3 13.5 13.6 79 2.1 ESE 26 33 14 18 1014.0 1013.8 0.0
02/02:00am 17.4 14.0 13.7 79 2.1 ESE 24 32 13 17 1014.6 1014.4 0.0
02/01:30am 17.4 13.1 13.1 76 2.4 ESE 28 33 15 18 1014.8 1014.6 0.0
02/01:00am 17.4 13.8 13.1 76 2.4 SE 24 30 13 16 1015.2 1015.0 0.0
02/12:30am 17.5 13.9 13.2 76 2.4 SE 24 37 13 20 1015.4 1015.2 0.0
02/12:00am 17.5 13.2 13.2 76 2.4 SE 28 33 15 18 1015.3 1015.1 0.0
 
Date/Time
CDT
Temp
°C
App
Temp
°C
Dew
Point
Rel
Hum
%
Delta-T
°C
Wind Press
QNH
hPa
Press
MSL
hPa
Rain
since 9 am
mm
Dir
 
Spd
km/h
Gust
km/h
Spd
kts
Gust
kts
01/11:30pm 17.6 13.6 13.1 75 2.5 SE 26 35 14 19 1015.5 1015.3 0.0
01/11:00pm 17.5 13.0 12.6 73 2.7 SE 28 37 15 20 1015.5 1015.3 0.0
01/10:30pm 17.4 12.8 12.3 72 2.8 SE 28 35 15 19 1015.5 1015.3 0.0
01/10:00pm 17.3 11.8 11.8 70 3.0 SE 32 39 17 21 1015.1 1014.9 0.0

Other Formats:

Comma delimited format used in spreadsheet applications
http://www.bom.gov.au/fwo/IDS60801/IDS60801.94651.axf

JavaScript Object Notation format (JSON) in row-major order
http://www.bom.gov.au/fwo/IDS60801/IDS60801.94651.json